Time;durP1;ratioP1;P1;durP2;ratioP2;P2;SDS_P1;SDS_P2;PMS_P1;PMS_P2;Temp;Humidity;BMP_temperature;BMP_pressure;BME280_temperature;BME280_humidity;BME280_pressure;Samples;Min_cycle;Max_cycle;Signal;HPM_P1;HPM_P2
2021/11/07 00:04:37;;;;;;;4.85;3.70;;;;;;;;;;5095796;28;20028;-77
2021/11/07 00:12:17;;;;;;;4.97;4.07;;;;;;;;;;5094597;28;20582;-77
2021/11/07 00:14:47;;;;;;;5.18;4.68;;;;;;;;;;5088664;28;20028;-77
2021/11/07 00:17:12;;;;;;;5.78;5.05;;;;;;;;;;5090567;28;20034;-77
2021/11/07 00:19:54;;;;;;;5.32;4.28;;;;;;;;;;5108547;28;20102;-76
2021/11/07 00:25:18;;;;;;;6.00;4.50;;;;;;;;;;5094852;28;20032;-78
2021/11/07 00:27:47;;;;;;;5.20;4.65;;;;;;;;;;5093483;28;20074;-78
2021/11/07 00:37:36;;;;;;;5.75;4.80;;;;;;;;;;5102219;28;20027;-78
2021/11/07 00:43:07;;;;;;;6.32;5.32;;;;;;;;;;5102638;28;20035;-76
2021/11/07 00:47:56;;;;;;;6.38;4.57;;;;;;;;;;5115137;28;20058;-78
2021/11/07 00:50:26;;;;;;;5.63;4.63;;;;;;;;;;5097454;28;20030;-78
2021/11/07 00:53:14;;;;;;;5.32;4.38;;;;;;;;;;5090856;28;20056;-78
2021/11/07 00:55:46;;;;;;;6.32;5.05;;;;;;;;;;5095440;28;20039;-77
2021/11/07 00:58:15;;;;;;;5.53;4.57;;;;;;;;;;5109656;28;20074;-77
2021/11/07 01:03:25;;;;;;;5.20;4.30;;;;;;;;;;5094343;28;20035;-78
2021/11/07 01:05:50;;;;;;;6.95;4.82;;;;;;;;;;5094162;28;20024;-78
2021/11/07 01:08:15;;;;;;;5.65;4.53;;;;;;;;;;5093749;28;20032;-78
2021/11/07 01:10:41;;;;;;;5.65;4.93;;;;;;;;;;5109799;28;20028;-77
2021/11/07 01:13:06;;;;;;;5.70;5.00;;;;;;;;;;5094090;28;20364;-78
2021/11/07 01:15:32;;;;;;;5.93;5.13;;;;;;;;;;5075840;28;20030;-78
2021/11/07 01:17:57;;;;;;;6.40;4.85;;;;;;;;;;5094478;28;20028;-76
2021/11/07 01:20:28;;;;;;;6.32;4.93;;;;;;;;;;5076218;28;20081;-78
2021/11/07 01:23:00;;;;;;;6.57;4.68;;;;;;;;;;5100178;28;20019;-78
2021/11/07 01:25:28;;;;;;;5.65;4.70;;;;;;;;;;5103025;28;20499;-77
2021/11/07 01:27:56;;;;;;;5.05;4.47;;;;;;;;;;5074778;28;20062;-78
2021/11/07 01:30:24;;;;;;;6.45;4.85;;;;;;;;;;5081109;28;20098;-78
2021/11/07 01:32:56;;;;;;;6.35;4.90;;;;;;;;;;5094905;28;20028;-78
2021/11/07 01:35:45;;;;;;;5.93;4.80;;;;;;;;;;5103388;28;20011;-78
2021/11/07 01:38:23;;;;;;;5.75;4.75;;;;;;;;;;5086296;28;20081;-78
2021/11/07 01:43:32;;;;;;;5.07;4.03;;;;;;;;;;5094238;28;20046;-78
2021/11/07 01:46:09;;;;;;;4.70;3.70;;;;;;;;;;5093635;28;20473;-78
2021/11/07 01:48:42;;;;;;;3.78;3.30;;;;;;;;;;5093113;28;20025;-78
2021/11/07 01:51:09;;;;;;;4.60;3.60;;;;;;;;;;5090920;28;20173;-77
2021/11/07 01:53:37;;;;;;;5.18;3.28;;;;;;;;;;5093151;28;20016;-77
2021/11/07 01:56:08;;;;;;;4.35;3.20;;;;;;;;;;5097862;28;20043;-76
2021/11/07 01:58:34;;;;;;;4.18;3.58;;;;;;;;;;5089869;28;20019;-76
2021/11/07 02:00:59;;;;;;;5.53;4.05;;;;;;;;;;5092643;28;20024;-76
2021/11/07 02:03:25;;;;;;;6.63;3.65;;;;;;;;;;5093603;28;20023;-76
2021/11/07 02:05:51;;;;;;;4.78;3.72;;;;;;;;;;5105055;28;20048;-76
2021/11/07 02:08:17;;;;;;;6.82;3.67;;;;;;;;;;5074651;28;20688;-74
2021/11/07 02:10:43;;;;;;;5.25;3.40;;;;;;;;;;5094166;28;20093;-77
2021/11/07 02:13:08;;;;;;;4.43;3.53;;;;;;;;;;5098007;28;20423;-74
2021/11/07 02:15:34;;;;;;;4.13;3.33;;;;;;;;;;5091293;28;20031;-75
2021/11/07 02:17:59;;;;;;;3.42;2.55;;;;;;;;;;5098254;28;20069;-75
2021/11/07 02:20:30;;;;;;;2.88;2.30;;;;;;;;;;5079407;28;20024;-77
2021/11/07 02:22:56;;;;;;;3.33;2.17;;;;;;;;;;5086178;28;20020;-76
2021/11/07 02:25:21;;;;;;;4.93;2.85;;;;;;;;;;5091416;28;20020;-76
2021/11/07 02:27:47;;;;;;;3.17;2.50;;;;;;;;;;5091788;28;20032;-74
2021/11/07 02:30:14;;;;;;;2.88;2.40;;;;;;;;;;5091707;28;20422;-76
2021/11/07 02:32:40;;;;;;;3.50;2.10;;;;;;;;;;5092686;28;20024;-76
2021/11/07 02:35:05;;;;;;;3.78;2.20;;;;;;;;;;5092372;28;20533;-78
2021/11/07 02:37:30;;;;;;;2.13;1.92;;;;;;;;;;5099202;28;20023;-76
2021/11/07 02:39:55;;;;;;;2.78;2.05;;;;;;;;;;5077597;28;20399;-76
2021/11/07 02:42:21;;;;;;;3.42;2.58;;;;;;;;;;5092015;28;20365;-76
2021/11/07 02:44:46;;;;;;;2.78;2.47;;;;;;;;;;5093703;28;20049;-76
2021/11/07 02:47:14;;;;;;;2.95;2.15;;;;;;;;;;5092806;28;20384;-76
2021/11/07 02:49:41;;;;;;;2.30;2.10;;;;;;;;;;5094505;28;20089;-75
2021/11/07 02:52:08;;;;;;;4.53;2.67;;;;;;;;;;5093896;28;20115;-76
2021/11/07 02:54:34;;;;;;;3.72;2.33;;;;;;;;;;5066375;28;20025;-76
2021/11/07 02:57:00;;;;;;;3.15;2.53;;;;;;;;;;5088488;28;20016;-76
2021/11/07 02:59:26;;;;;;;2.40;2.20;;;;;;;;;;5093960;28;20012;-75
2021/11/07 03:01:52;;;;;;;3.35;2.00;;;;;;;;;;5092443;28;20016;-75
2021/11/07 03:04:17;;;;;;;4.07;2.40;;;;;;;;;;5091751;28;20365;-75
2021/11/07 03:06:43;;;;;;;3.65;1.92;;;;;;;;;;5106544;28;20058;-76
2021/11/07 03:09:19;;;;;;;2.45;2.25;;;;;;;;;;5093815;28;20438;-75
2021/11/07 03:11:45;;;;;;;3.60;3.17;;;;;;;;;;5091493;28;20027;-75
2021/11/07 03:14:12;;;;;;;5.40;2.63;;;;;;;;;;5092143;28;20021;-76
2021/11/07 03:16:37;;;;;;;3.35;2.50;;;;;;;;;;5064184;28;20024;-76
2021/11/07 03:19:03;;;;;;;3.58;2.60;;;;;;;;;;5091808;28;20030;-75
2021/11/07 03:21:28;;;;;;;2.92;2.10;;;;;;;;;;5085747;28;20051;-76
2021/11/07 03:23:53;;;;;;;2.90;2.70;;;;;;;;;;5069410;28;20032;-76
2021/11/07 03:26:20;;;;;;;2.58;2.30;;;;;;;;;;5080790;28;20078;-76
2021/11/07 03:28:47;;;;;;;2.65;2.20;;;;;;;;;;5092452;28;20490;-76
2021/11/07 03:31:18;;;;;;;2.97;2.28;;;;;;;;;;5100712;28;20044;-74
2021/11/07 03:36:08;;;;;;;2.75;2.50;;;;;;;;;;5112446;28;20067;-76
2021/11/07 03:38:34;;;;;;;2.58;2.38;;;;;;;;;;5104133;28;20038;-76
2021/11/07 03:41:00;;;;;;;4.07;2.75;;;;;;;;;;5095491;28;20028;-74
2021/11/07 03:43:28;;;;;;;3.22;2.42;;;;;;;;;;5111643;28;20030;-75
2021/11/07 03:45:54;;;;;;;2.97;1.98;;;;;;;;;;5112560;28;20033;-75
2021/11/07 03:48:19;;;;;;;3.08;1.90;;;;;;;;;;5111311;28;20031;-76
2021/11/07 03:50:45;;;;;;;2.88;1.92;;;;;;;;;;5078257;28;20077;-76
2021/11/07 03:53:11;;;;;;;2.45;1.85;;;;;;;;;;5070892;28;20020;-73
2021/11/07 03:55:37;;;;;;;3.17;1.80;;;;;;;;;;5091691;28;20027;-74
2021/11/07 03:58:02;;;;;;;2.47;2.17;;;;;;;;;;5091224;28;20019;-73
2021/11/07 04:00:27;;;;;;;2.35;2.13;;;;;;;;;;5094700;28;20016;-73
2021/11/07 04:02:52;;;;;;;2.65;1.73;;;;;;;;;;5090831;28;20035;-73
2021/11/07 04:05:18;;;;;;;2.80;2.00;;;;;;;;;;5091744;28;20385;-73
2021/11/07 04:07:44;;;;;;;3.33;2.35;;;;;;;;;;5091418;28;20387;-75
2021/11/07 04:10:10;;;;;;;3.10;2.28;;;;;;;;;;5073244;28;20035;-74
2021/11/07 04:12:35;;;;;;;2.70;2.40;;;;;;;;;;5097659;28;20065;-76
2021/11/07 04:15:01;;;;;;;4.75;2.15;;;;;;;;;;5091711;28;20107;-75
2021/11/07 04:17:26;;;;;;;3.50;2.50;;;;;;;;;;5091459;28;20019;-75
2021/11/07 04:19:51;;;;;;;3.15;2.55;;;;;;;;;;5092749;28;20101;-76
2021/11/07 04:22:16;;;;;;;3.05;2.60;;;;;;;;;;5092651;28;20149;-74
2021/11/07 04:24:42;;;;;;;2.47;2.17;;;;;;;;;;5090594;28;20020;-76
2021/11/07 04:27:07;;;;;;;3.15;2.55;;;;;;;;;;5089362;28;20012;-75
2021/11/07 04:29:33;;;;;;;3.55;2.63;;;;;;;;;;5092259;28;20036;-75
2021/11/07 04:31:59;;;;;;;2.97;2.38;;;;;;;;;;5070659;28;20496;-76
2021/11/07 04:34:25;;;;;;;3.67;2.70;;;;;;;;;;5093451;28;20027;-76
2021/11/07 04:36:51;;;;;;;3.63;2.53;;;;;;;;;;5094932;28;20020;-76
2021/11/07 04:39:16;;;;;;;3.53;2.10;;;;;;;;;;5097311;28;20077;-73
2021/11/07 04:41:42;;;;;;;4.32;2.70;;;;;;;;;;5103150;28;20039;-76
2021/11/07 04:44:07;;;;;;;3.42;2.35;;;;;;;;;;5100814;28;20036;-76
2021/11/07 04:46:34;;;;;;;3.47;2.83;;;;;;;;;;5094651;28;20028;-76
2021/11/07 04:48:59;;;;;;;4.85;3.10;;;;;;;;;;5094620;28;20028;-76
2021/11/07 04:51:25;;;;;;;3.83;2.95;;;;;;;;;;5103348;28;20085;-75
2021/11/07 04:53:50;;;;;;;3.95;3.13;;;;;;;;;;5101020;27;20027;-75
2021/11/07 04:56:15;;;;;;;5.00;2.95;;;;;;;;;;5075820;28;20396;-75
2021/11/07 04:58:40;;;;;;;3.70;2.60;;;;;;;;;;5094231;28;20027;-75
2021/11/07 05:01:06;;;;;;;3.30;2.75;;;;;;;;;;5109085;28;20032;-75
2021/11/07 05:03:31;;;;;;;3.42;2.55;;;;;;;;;;5095045;28;20039;-75
2021/11/07 05:05:57;;;;;;;3.53;2.78;;;;;;;;;;5094202;28;20062;-74
2021/11/07 05:08:23;;;;;;;2.83;2.50;;;;;;;;;;5093954;28;20026;-75
2021/11/07 05:10:48;;;;;;;4.25;3.00;;;;;;;;;;5077623;28;20038;-75
2021/11/07 05:13:13;;;;;;;3.22;2.60;;;;;;;;;;5075894;28;20476;-76
2021/11/07 05:15:39;;;;;;;4.60;3.20;;;;;;;;;;5100494;28;20081;-76
2021/11/07 05:18:04;;;;;;;3.90;3.40;;;;;;;;;;5096129;28;20486;-76
2021/11/07 05:20:29;;;;;;;3.90;3.00;;;;;;;;;;5096588;28;20015;-75
2021/11/07 05:22:55;;;;;;;3.85;3.17;;;;;;;;;;5089224;28;20442;-77
2021/11/07 05:25:20;;;;;;;5.30;3.35;;;;;;;;;;5100632;28;20038;-77
2021/11/07 05:27:45;;;;;;;5.53;2.95;;;;;;;;;;5092918;28;20484;-77
2021/11/07 05:30:13;;;;;;;4.28;3.00;;;;;;;;;;5093599;28;20019;-77
2021/11/07 05:32:38;;;;;;;3.60;2.70;;;;;;;;;;5105683;28;20054;-76
2021/11/07 05:35:04;;;;;;;5.03;3.30;;;;;;;;;;5098026;28;20032;-76
2021/11/07 05:37:29;;;;;;;2.65;2.10;;;;;;;;;;5099084;28;20028;-74
2021/11/07 05:39:55;;;;;;;3.80;2.80;;;;;;;;;;5093464;28;20016;-75
2021/11/07 05:42:20;;;;;;;4.38;2.90;;;;;;;;;;5076366;28;20031;-75
2021/11/07 05:44:46;;;;;;;3.75;2.30;;;;;;;;;;5093158;28;20052;-76
2021/11/07 05:47:11;;;;;;;6.78;2.50;;;;;;;;;;5074618;28;20391;-76
2021/11/07 05:49:36;;;;;;;2.70;2.33;;;;;;;;;;5093140;28;20020;-76
2021/11/07 05:52:02;;;;;;;3.67;2.20;;;;;;;;;;5089283;28;20438;-76
2021/11/07 05:54:27;;;;;;;2.70;2.25;;;;;;;;;;5079470;28;20028;-75
2021/11/07 05:56:52;;;;;;;3.80;2.35;;;;;;;;;;5092630;28;20472;-75
2021/11/07 05:59:17;;;;;;;3.95;2.10;;;;;;;;;;5092810;28;20091;-76
2021/11/07 06:01:43;;;;;;;3.15;2.25;;;;;;;;;;5075048;28;20085;-76
2021/11/07 06:04:08;;;;;;;4.82;2.22;;;;;;;;;;5090105;28;20024;-76
2021/11/07 06:06:33;;;;;;;2.22;1.92;;;;;;;;;;5087672;28;20024;-76
2021/11/07 06:08:59;;;;;;;3.30;2.05;;;;;;;;;;5092368;28;20035;-75
2021/11/07 06:11:24;;;;;;;4.28;2.28;;;;;;;;;;5093595;28;20028;-76
2021/11/07 06:13:49;;;;;;;2.58;1.83;;;;;;;;;;5092628;28;20452;-75
2021/11/07 06:16:15;;;;;;;2.60;1.63;;;;;;;;;;5094774;28;20167;-74
2021/11/07 06:18:40;;;;;;;3.83;2.08;;;;;;;;;;5092349;28;20456;-77
2021/11/07 06:21:07;;;;;;;2.13;1.80;;;;;;;;;;5089161;28;20032;-77
2021/11/07 06:23:33;;;;;;;1.92;1.67;;;;;;;;;;5088663;28;20025;-77
2021/11/07 06:25:59;;;;;;;2.47;2.10;;;;;;;;;;5097162;28;20406;-78
2021/11/07 06:28:24;;;;;;;2.20;1.50;;;;;;;;;;5112434;28;20092;-75
2021/11/07 06:30:50;;;;;;;1.85;1.48;;;;;;;;;;5093490;28;20086;-74
2021/11/07 06:33:16;;;;;;;1.42;1.23;;;;;;;;;;5092445;28;20395;-75
2021/11/07 06:35:41;;;;;;;2.08;1.02;;;;;;;;;;5092257;28;20450;-75
2021/11/07 06:38:07;;;;;;;2.15;1.40;;;;;;;;;;5091703;28;20030;-75
2021/11/07 06:40:33;;;;;;;2.05;1.50;;;;;;;;;;5095472;28;20022;-75
2021/11/07 06:42:59;;;;;;;2.47;1.42;;;;;;;;;;5095632;28;20032;-74
2021/11/07 06:45:24;;;;;;;1.25;0.88;;;;;;;;;;5096088;28;20024;-74
2021/11/07 06:47:49;;;;;;;2.22;1.52;;;;;;;;;;5092613;28;20502;-74
2021/11/07 06:50:14;;;;;;;2.50;1.77;;;;;;;;;;5096436;28;20474;-74
2021/11/07 06:52:40;;;;;;;1.80;1.50;;;;;;;;;;5087518;28;20400;-75
2021/11/07 06:55:06;;;;;;;2.17;1.50;;;;;;;;;;5098100;28;20148;-75
2021/11/07 06:57:32;;;;;;;2.15;1.80;;;;;;;;;;5091026;28;20483;-75
2021/11/07 06:59:57;;;;;;;1.83;1.48;;;;;;;;;;5080417;28;20149;-74
2021/11/07 07:02:23;;;;;;;2.28;1.85;;;;;;;;;;5110175;28;20107;-73
2021/11/07 07:04:48;;;;;;;2.20;1.67;;;;;;;;;;5097840;28;20386;-72
2021/11/07 07:07:14;;;;;;;2.35;1.77;;;;;;;;;;5107959;28;20035;-74
2021/11/07 07:09:51;;;;;;;1.83;1.58;;;;;;;;;;5106410;28;20024;-74
2021/11/07 07:12:31;;;;;;;2.70;2.50;;;;;;;;;;5109592;28;20038;-74
2021/11/07 07:15:07;;;;;;;2.53;2.33;;;;;;;;;;5104257;28;20027;-74
2021/11/07 07:23:04;;;;;;;3.13;2.70;;;;;;;;;;5089492;28;20036;-74
2021/11/07 07:25:42;;;;;;;2.97;2.63;;;;;;;;;;5087881;28;20205;-74
2021/11/07 07:36:10;;;;;;;4.22;3.25;;;;;;;;;;5095576;28;20391;-75
2021/11/07 07:38:35;;;;;;;3.95;2.90;;;;;;;;;;5099468;28;20028;-76
2021/11/07 07:41:00;;;;;;;3.35;2.65;;;;;;;;;;5092928;28;20024;-74
2021/11/07 07:43:26;;;;;;;4.43;3.65;;;;;;;;;;5091858;28;20043;-75
2021/11/07 07:45:54;;;;;;;6.18;3.65;;;;;;;;;;5095649;28;20034;-74
2021/11/07 07:48:20;;;;;;;5.15;3.78;;;;;;;;;;5083580;28;20496;-74
2021/11/07 07:50:46;;;;;;;4.47;3.60;;;;;;;;;;5088549;28;20023;-74
2021/11/07 07:53:13;;;;;;;5.00;3.88;;;;;;;;;;5087084;28;20024;-74
2021/11/07 07:55:38;;;;;;;4.93;4.43;;;;;;;;;;5097026;28;20024;-76
2021/11/07 07:58:03;;;;;;;4.25;3.03;;;;;;;;;;5096214;28;20488;-75
2021/11/07 08:00:29;;;;;;;6.75;5.13;;;;;;;;;;5100220;28;20051;-75
2021/11/07 08:02:54;;;;;;;5.93;5.15;;;;;;;;;;5091054;28;20019;-76
2021/11/07 08:05:19;;;;;;;6.32;5.28;;;;;;;;;;5084979;28;20070;-76
2021/11/07 08:07:46;;;;;;;6.13;4.90;;;;;;;;;;5091601;28;20059;-77
2021/11/07 08:10:12;;;;;;;5.82;4.65;;;;;;;;;;5081249;28;20033;-77
2021/11/07 08:12:39;;;;;;;5.13;4.03;;;;;;;;;;5075087;28;20035;-76
2021/11/07 08:15:09;;;;;;;6.03;4.90;;;;;;;;;;5107149;28;20107;-75
2021/11/07 08:17:35;;;;;;;6.25;5.65;;;;;;;;;;5087210;28;20562;-75
2021/11/07 08:20:03;;;;;;;9.15;6.28;;;;;;;;;;5082116;28;20028;-77
2021/11/07 08:22:28;;;;;;;6.78;5.85;;;;;;;;;;5091581;28;20062;-77
2021/11/07 08:24:53;;;;;;;6.50;4.85;;;;;;;;;;5075562;28;20035;-77
2021/11/07 08:27:19;;;;;;;6.03;5.43;;;;;;;;;;5101576;28;20085;-78
2021/11/07 08:29:50;;;;;;;5.15;4.45;;;;;;;;;;5094979;28;20039;-78
2021/11/07 08:32:15;;;;;;;5.47;4.43;;;;;;;;;;5094447;28;20076;-77
2021/11/07 08:34:40;;;;;;;4.93;4.03;;;;;;;;;;5095191;28;20495;-76
2021/11/07 08:37:09;;;;;;;4.10;3.70;;;;;;;;;;5101187;28;20020;-76
2021/11/07 08:39:54;;;;;;;5.20;4.05;;;;;;;;;;5095798;28;20024;-76
2021/11/07 08:42:32;;;;;;;4.22;3.50;;;;;;;;;;5094285;28;20030;-76
2021/11/07 09:06:44;;;;;;;2.88;2.58;;;;;;;;;;5093575;28;20149;-77
2021/11/07 09:09:12;;;;;;;2.92;2.20;;;;;;;;;;5108268;28;20027;-77
2021/11/07 09:11:37;;;;;;;3.65;2.25;;;;;;;;;;5114621;28;20038;-76
2021/11/07 09:14:06;;;;;;;1.88;1.73;;;;;;;;;;5099644;28;20103;-77
2021/11/07 09:16:31;;;;;;;2.08;1.80;;;;;;;;;;5107972;28;20023;-77
2021/11/07 09:18:59;;;;;;;2.25;1.80;;;;;;;;;;5098851;28;20024;-75
2021/11/07 09:21:28;;;;;;;1.80;1.70;;;;;;;;;;5085879;28;20484;-77
2021/11/07 09:23:57;;;;;;;2.08;1.23;;;;;;;;;;5089140;28;20035;-75
2021/11/07 09:26:40;;;;;;;2.22;1.70;;;;;;;;;;5081120;28;20032;-76
2021/11/07 09:29:09;;;;;;;1.40;1.30;;;;;;;;;;5091791;28;20081;-76
2021/11/07 09:36:46;;;;;;;1.73;1.40;;;;;;;;;;5094188;28;20264;-78
2021/11/07 09:44:49;;;;;;;1.15;1.05;;;;;;;;;;5114147;28;20028;-74
2021/11/07 09:47:14;;;;;;;1.42;1.02;;;;;;;;;;5086650;28;20396;-74
2021/11/07 09:49:46;;;;;;;1.55;1.17;;;;;;;;;;5097789;28;20035;-75
2021/11/07 09:52:14;;;;;;;1.92;1.17;;;;;;;;;;5091438;28;20036;-74
2021/11/07 09:54:45;;;;;;;2.17;1.20;;;;;;;;;;5079365;28;20476;-76
2021/11/07 09:57:15;;;;;;;1.23;0.98;;;;;;;;;;5092089;28;21168;-75
2021/11/07 09:59:40;;;;;;;0.80;0.80;;;;;;;;;;5092574;28;20366;-75
2021/11/07 10:02:06;;;;;;;1.42;0.60;;;;;;;;;;5092720;28;20031;-74
2021/11/07 10:04:32;;;;;;;1.05;0.65;;;;;;;;;;5092936;28;20028;-74
2021/11/07 10:07:13;;;;;;;0.77;0.68;;;;;;;;;;5092775;28;20032;-73
2021/11/07 10:09:40;;;;;;;0.80;0.52;;;;;;;;;;5079287;28;20028;-76
2021/11/07 10:12:13;;;;;;;1.10;0.60;;;;;;;;;;5106763;28;20185;-74
2021/11/07 10:14:43;;;;;;;1.20;0.50;;;;;;;;;;5094756;28;20055;-75
2021/11/07 10:17:27;;;;;;;0.68;0.50;;;;;;;;;;5109518;28;20024;-74
2021/11/07 10:20:11;;;;;;;0.55;0.40;;;;;;;;;;5099191;28;20024;-74
2021/11/07 10:22:38;;;;;;;1.20;0.60;;;;;;;;;;5083425;28;20038;-73
2021/11/07 10:25:08;;;;;;;0.70;0.50;;;;;;;;;;5074219;28;20031;-73
2021/11/07 10:27:39;;;;;;;0.40;0.30;;;;;;;;;;5072000;28;20027;-74
2021/11/07 10:30:07;;;;;;;0.93;0.50;;;;;;;;;;5077369;28;20173;-74
2021/11/07 10:32:41;;;;;;;0.45;0.30;;;;;;;;;;5095177;28;20476;-74
2021/11/07 10:35:41;;;;;;;0.40;0.38;;;;;;;;;;5092277;28;20051;-74
2021/11/07 10:40:46;;;;;;;0.50;0.38;;;;;;;;;;5073481;28;20025;-73
2021/11/07 10:46:18;;;;;;;0.30;0.28;;;;;;;;;;5097711;28;20117;-75
2021/11/07 10:54:25;;;;;;;0.28;0.28;;;;;;;;;;4994068;28;20572;-74
2021/11/07 10:57:11;;;;;;;0.32;0.20;;;;;;;;;;5009810;28;20037;-74
2021/11/07 10:59:37;;;;;;;1.45;0.30;;;;;;;;;;5009492;28;20022;-74
2021/11/07 11:02:22;;;;;;;0.40;0.30;;;;;;;;;;5006571;28;20052;-74
2021/11/07 11:05:01;;;;;;;0.35;0.22;;;;;;;;;;5000893;28;20578;-74
2021/11/07 11:07:26;;;;;;;0.35;0.22;;;;;;;;;;5008156;28;20054;-74
2021/11/07 11:10:28;;;;;;;0.35;0.30;;;;;;;;;;5009178;28;20057;-74
2021/11/07 11:13:03;;;;;;;0.60;0.30;;;;;;;;;;4985916;28;20100;-74
2021/11/07 11:15:38;;;;;;;0.30;0.30;;;;;;;;;;5008868;28;20112;-74
2021/11/07 11:21:07;;;;;;;0.60;0.30;;;;;;;;;;5006869;28;20062;-74
2021/11/07 11:23:47;;;;;;;0.28;0.22;;;;;;;;;;5006710;28;20018;-73
2021/11/07 11:26:15;;;;;;;0.38;0.20;;;;;;;;;;5008712;28;20475;-73
2021/11/07 11:34:21;;;;;;;0.28;0.20;;;;;;;;;;5076392;28;20542;-74
2021/11/07 11:36:52;;;;;;;0.60;0.32;;;;;;;;;;5092766;28;20391;-74
2021/11/07 11:39:25;;;;;;;0.40;0.35;;;;;;;;;;5087007;28;20020;-74
2021/11/07 11:42:00;;;;;;;0.68;0.38;;;;;;;;;;5090982;28;20020;-74
2021/11/07 11:44:26;;;;;;;0.28;0.20;;;;;;;;;;5078536;28;20038;-74
2021/11/07 11:47:13;;;;;;;0.50;0.38;;;;;;;;;;5084141;28;20032;-74
2021/11/07 12:03:12;;;;;;;0.40;0.30;;;;;;;;;;4997170;28;20513;-74
2021/11/07 12:05:49;;;;;;;0.50;0.28;;;;;;;;;;4993951;28;20022;-74
2021/11/07 12:08:22;;;;;;;0.60;0.40;;;;;;;;;;4993598;28;20128;-74
2021/11/07 12:13:25;;;;;;;0.77;0.40;;;;;;;;;;4992854;28;20030;-74
2021/11/07 12:15:53;;;;;;;0.60;0.50;;;;;;;;;;4992989;28;20407;-74
2021/11/07 12:18:19;;;;;;;0.70;0.50;;;;;;;;;;4992587;28;20061;-74
2021/11/07 12:20:51;;;;;;;0.50;0.50;;;;;;;;;;4990900;28;20058;-74
2021/11/07 12:23:32;;;;;;;0.60;0.55;;;;;;;;;;5034545;28;20044;-74
2021/11/07 12:26:17;;;;;;;0.85;0.65;;;;;;;;;;5102991;28;20051;-74
2021/11/07 12:28:48;;;;;;;0.88;0.75;;;;;;;;;;5085952;28;20024;-73
2021/11/07 12:31:13;;;;;;;1.10;0.70;;;;;;;;;;5091774;28;20044;-73
2021/11/07 12:33:48;;;;;;;1.17;0.90;;;;;;;;;;5090157;28;20593;-74
2021/11/07 12:41:44;;;;;;;0.77;0.77;;;;;;;;;;5093025;28;20035;-74
2021/11/07 12:44:19;;;;;;;1.23;1.00;;;;;;;;;;5096798;28;20488;-74
2021/11/07 12:49:22;;;;;;;0.90;0.80;;;;;;;;;;5085926;28;20059;-74
2021/11/07 12:51:50;;;;;;;1.42;1.20;;;;;;;;;;5079446;28;20115;-74
2021/11/07 12:54:24;;;;;;;1.00;0.73;;;;;;;;;;5084024;28;20012;-73
2021/11/07 12:56:57;;;;;;;1.27;1.08;;;;;;;;;;5087775;28;20012;-74
2021/11/07 12:59:25;;;;;;;1.45;1.13;;;;;;;;;;5075374;28;20031;-74
2021/11/07 13:01:53;;;;;;;1.38;1.00;;;;;;;;;;5089819;28;20036;-74
2021/11/07 13:04:21;;;;;;;1.35;1.20;;;;;;;;;;5094023;28;20028;-74
2021/11/07 13:06:49;;;;;;;1.40;0.90;;;;;;;;;;5087950;28;20089;-73
2021/11/07 13:09:15;;;;;;;1.23;0.95;;;;;;;;;;5078348;28;20088;-74
2021/11/07 13:11:43;;;;;;;1.70;1.17;;;;;;;;;;5088927;28;20780;-74
2021/11/07 13:15:05;;;;;;;3.63;1.77;;;;;;;;;;5099065;28;20497;-72
2021/11/07 13:17:56;;;;;;;1.17;1.08;;;;;;;;;;5073708;28;20052;-73
2021/11/07 13:20:32;;;;;;;1.10;1.00;;;;;;;;;;5068052;28;20515;-73
2021/11/07 13:28:42;;;;;;;1.02;0.90;;;;;;;;;;5096746;28;20038;-74
2021/11/07 13:33:37;;;;;;;1.10;0.95;;;;;;;;;;5086902;28;20031;-74
2021/11/07 13:36:03;;;;;;;1.10;1.00;;;;;;;;;;5099888;28;20022;-74
2021/11/07 13:38:31;;;;;;;1.33;1.13;;;;;;;;;;5073857;28;20020;-74
2021/11/07 13:40:56;;;;;;;1.30;1.17;;;;;;;;;;5096418;28;20832;-74
2021/11/07 13:43:28;;;;;;;1.10;0.85;;;;;;;;;;5088193;28;20170;-74
2021/11/07 13:45:55;;;;;;;0.75;0.70;;;;;;;;;;5081077;28;20031;-75
2021/11/07 13:48:27;;;;;;;1.00;0.77;;;;;;;;;;5076469;28;20036;-74
2021/11/07 13:50:53;;;;;;;1.52;0.98;;;;;;;;;;5100319;28;20032;-74
2021/11/07 13:53:20;;;;;;;1.00;0.70;;;;;;;;;;5085757;28;20476;-73
2021/11/07 13:55:49;;;;;;;1.95;0.85;;;;;;;;;;5072954;28;20020;-74
2021/11/07 13:58:16;;;;;;;1.85;0.80;;;;;;;;;;5091795;28;20103;-75
2021/11/07 14:00:42;;;;;;;1.05;0.68;;;;;;;;;;5092794;28;20377;-75
2021/11/07 14:03:10;;;;;;;0.80;0.70;;;;;;;;;;5074938;28;20036;-73
2021/11/07 14:05:39;;;;;;;0.98;0.85;;;;;;;;;;5089354;28;20031;-74
2021/11/07 14:08:06;;;;;;;1.10;0.63;;;;;;;;;;5088720;28;20040;-73
2021/11/07 14:10:32;;;;;;;0.90;0.77;;;;;;;;;;5092044;28;20101;-74
2021/11/07 14:12:58;;;;;;;1.40;0.90;;;;;;;;;;5091603;28;20028;-75
2021/11/07 14:15:28;;;;;;;0.98;0.82;;;;;;;;;;5065779;28;20486;-76
2021/11/07 14:17:54;;;;;;;1.25;0.73;;;;;;;;;;5084735;28;20043;-75
2021/11/07 14:20:40;;;;;;;1.58;0.70;;;;;;;;;;5089357;28;20020;-74
2021/11/07 14:23:09;;;;;;;;;;;;;;;;;;5088011;28;20032;-76
2021/11/07 14:25:48;;;;;;;0.70;0.70;;;;;;;;;;5090207;28;20037;-77
2021/11/07 14:28:25;;;;;;;3.95;1.70;;;;;;;;;;5097732;27;20397;-75
2021/11/07 14:30:51;;;;;;;1.10;0.98;;;;;;;;;;5104108;28;20494;-75
2021/11/07 14:33:28;;;;;;;1.50;1.05;;;;;;;;;;5092362;28;20103;-77
2021/11/07 14:35:59;;;;;;;0.95;0.95;;;;;;;;;;5097265;28;20024;-76
2021/11/07 14:38:31;;;;;;;1.42;1.20;;;;;;;;;;5100300;28;20051;-76
2021/11/07 14:43:36;;;;;;;2.22;1.60;;;;;;;;;;5096898;28;20016;-76
2021/11/07 14:46:18;;;;;;;1.40;1.27;;;;;;;;;;5091083;28;20389;-77
2021/11/07 14:48:57;;;;;;;1.00;0.90;;;;;;;;;;5089358;28;20066;-76
2021/11/07 14:56:38;;;;;;;1.20;1.10;;;;;;;;;;5101538;28;19947;-75
2021/11/07 14:59:26;;;;;;;1.63;1.27;;;;;;;;;;5099594;28;20024;-76
2021/11/07 15:02:08;;;;;;;2.45;1.05;;;;;;;;;;5104013;28;20080;-75
2021/11/07 15:05:09;;;;;;;1.48;1.33;;;;;;;;;;5091766;28;20036;-73
2021/11/07 15:10:10;;;;;;;3.70;1.58;;;;;;;;;;5100673;28;20023;-71
2021/11/07 15:17:47;;;;;;;3.08;2.30;;;;;;;;;;5095909;28;20039;-69
2021/11/07 15:20:18;;;;;;;2.83;2.38;;;;;;;;;;5098824;28;20028;-72
2021/11/07 15:22:47;;;;;;;2.15;1.88;;;;;;;;;;5084364;28;20028;-67
2021/11/07 15:25:12;;;;;;;2.58;2.38;;;;;;;;;;5089286;28;20036;-73
2021/11/07 15:27:37;;;;;;;2.40;2.20;;;;;;;;;;5097502;28;20051;-68
2021/11/07 15:30:12;;;;;;;2.42;2.15;;;;;;;;;;5088102;28;20024;-69
2021/11/07 15:32:38;;;;;;;3.00;2.22;;;;;;;;;;5087102;28;20054;-67
2021/11/07 15:35:15;;;;;;;3.25;2.20;;;;;;;;;;5090377;28;20044;-70
2021/11/07 15:37:40;;;;;;;3.60;2.10;;;;;;;;;;5097229;28;20111;-71
2021/11/07 15:40:07;;;;;;;2.13;1.70;;;;;;;;;;5074306;28;20147;-81
2021/11/07 15:42:33;;;;;;;3.45;2.28;;;;;;;;;;5093672;28;20027;-75
2021/11/07 15:45:07;;;;;;;3.10;1.90;;;;;;;;;;5099570;28;20020;-71
2021/11/07 15:47:45;;;;;;;2.45;1.80;;;;;;;;;;5091271;28;20074;-71
2021/11/07 15:50:31;;;;;;;2.85;1.80;;;;;;;;;;5092730;28;20028;-66
2021/11/07 16:01:21;;;;;;;2.42;2.05;;;;;;;;;;5060900;28;20043;-76
2021/11/07 16:04:03;;;;;;;2.58;1.83;;;;;;;;;;5064759;28;20086;-77
2021/11/07 16:06:45;;;;;;;3.75;2.20;;;;;;;;;;5070734;28;20044;-75
2021/11/07 16:11:49;;;;;;;2.65;2.42;;;;;;;;;;5049379;28;20471;-77
2021/11/07 16:14:36;;;;;;;4.05;2.33;;;;;;;;;;5069629;28;20090;-77
2021/11/07 16:17:08;;;;;;;3.08;2.28;;;;;;;;;;5071710;28;20032;-78
2021/11/07 16:19:35;;;;;;;2.92;1.90;;;;;;;;;;5052372;28;20111;-75
2021/11/07 16:22:00;;;;;;;2.25;1.95;;;;;;;;;;5042428;28;20385;-77
2021/11/07 16:24:27;;;;;;;2.60;2.00;;;;;;;;;;5037361;28;20119;-79
2021/11/07 16:26:58;;;;;;;2.22;1.80;;;;;;;;;;5049721;28;20489;-76
2021/11/07 16:29:28;;;;;;;2.83;1.95;;;;;;;;;;5074051;28;20059;-76
2021/11/07 16:34:48;;;;;;;3.95;2.30;;;;;;;;;;5075436;28;20229;-75
2021/11/07 16:37:19;;;;;;;4.55;2.33;;;;;;;;;;5082146;28;20028;-74
2021/11/07 16:39:56;;;;;;;3.78;1.98;;;;;;;;;;5086295;28;20024;-75
2021/11/07 16:42:22;;;;;;;3.40;1.85;;;;;;;;;;5091560;28;20560;-75
2021/11/07 16:44:47;;;;;;;2.97;1.70;;;;;;;;;;5074169;28;20044;-74
2021/11/07 16:47:22;;;;;;;4.88;2.17;;;;;;;;;;5104252;28;20114;-74
2021/11/07 16:49:47;;;;;;;4.15;2.13;;;;;;;;;;5078765;28;20028;-74
2021/11/07 16:52:18;;;;;;;4.75;2.25;;;;;;;;;;5082937;28;20031;-74
2021/11/07 16:55:08;;;;;;;2.83;2.15;;;;;;;;;;5084955;28;20027;-73
2021/11/07 16:57:35;;;;;;;3.50;2.03;;;;;;;;;;5077790;28;20024;-74
2021/11/07 17:00:07;;;;;;;5.32;2.80;;;;;;;;;;5083343;28;20019;-74
2021/11/07 17:02:38;;;;;;;3.00;1.88;;;;;;;;;;5079054;28;20021;-74
2021/11/07 17:05:39;;;;;;;3.50;2.55;;;;;;;;;;5089036;28;20103;-74
2021/11/07 17:08:12;;;;;;;4.63;3.00;;;;;;;;;;5085051;28;20031;-76
2021/11/07 17:10:39;;;;;;;4.70;2.80;;;;;;;;;;5076737;28;20546;-77
2021/11/07 17:13:09;;;;;;;4.03;2.80;;;;;;;;;;5075116;28;20047;-76
2021/11/07 17:18:07;;;;;;;5.43;2.92;;;;;;;;;;5090723;28;20016;-75
2021/11/07 17:23:15;;;;;;;3.38;1.83;;;;;;;;;;5091795;28;20024;-75
2021/11/07 17:25:50;;;;;;;3.63;2.50;;;;;;;;;;5088871;28;20020;-73
2021/11/07 17:28:21;;;;;;;7.10;3.15;;;;;;;;;;5082158;28;20515;-74
2021/11/07 17:38:47;;;;;;;2.30;1.93;;;;;;;;;;5081525;28;20024;-74
2021/11/07 17:54:52;;;;;;;5.30;2.20;;;;;;;;;;5078982;28;20484;-75
2021/11/07 17:57:20;;;;;;;3.63;1.85;;;;;;;;;;5075661;28;20025;-74
2021/11/07 17:59:45;;;;;;;5.35;2.30;;;;;;;;;;5073510;28;20031;-74
2021/11/07 18:02:12;;;;;;;3.38;2.38;;;;;;;;;;5090376;28;20028;-74